Time;durP1;ratioP1;P1;durP2;ratioP2;P2;SDS_P1;SDS_P2;PMS_P1;PMS_P2;Temp;Humidity;BMP_temperature;BMP_pressure;BME280_temperature;BME280_humidity;BME280_pressure;Samples;Min_cycle;Max_cycle;Signal;HPM_P1;HPM_P2
2023/08/25 00:02:18;;;;;;;5.38;4.22;;;;;;;21.11;72.18;98291.06;5025127;28;20549;-86
2023/08/25 00:04:43;;;;;;;8.30;5.05;;;;;;;20.92;72.21;98254.28;5022602;28;20032;-86
2023/08/25 00:07:09;;;;;;;10.20;3.92;;;;;;;21.01;72.25;98261.56;5019550;28;20026;-86
2023/08/25 00:09:34;;;;;;;6.85;4.15;;;;;;;21.20;72.13;98298.03;5016752;28;20065;-86
2023/08/25 00:11:59;;;;;;;7.22;4.25;;;;;;;20.85;71.94;98259.44;5015666;28;20707;-86
2023/08/25 00:14:25;;;;;;;6.80;4.30;;;;;;;21.18;72.07;98299.47;5004699;28;20117;-86
2023/08/25 00:16:51;;;;;;;6.05;4.15;;;;;;;21.14;71.99;98293.94;5016141;28;20037;-85
2023/08/25 00:19:17;;;;;;;8.55;4.13;;;;;;;20.88;71.94;98255.28;5004517;28;20030;-85
2023/08/25 00:21:43;;;;;;;8.98;3.70;;;;;;;21.08;72.33;98303.38;5023876;28;20177;-85
2023/08/25 00:24:09;;;;;;;6.70;4.32;;;;;;;20.97;72.20;98285.06;5019673;28;20030;-85
2023/08/25 00:26:35;;;;;;;6.47;4.40;;;;;;;20.97;72.37;98285.06;5035649;28;20037;-85
2023/08/25 00:29:00;;;;;;;7.63;4.75;;;;;;;20.93;72.24;98280.28;5004714;28;20040;-85
2023/08/25 00:31:26;;;;;;;8.55;4.78;;;;;;;20.92;72.07;98270.56;5019968;28;20053;-85
2023/08/25 00:33:51;;;;;;;6.22;4.35;;;;;;;21.03;72.12;98270.19;5005883;28;20041;-85
2023/08/25 00:36:17;;;;;;;5.82;4.10;;;;;;;21.22;71.79;98255.06;5023683;28;20026;-85
2023/08/25 00:38:42;;;;;;;7.30;4.78;;;;;;;21.10;72.02;98249.53;5033899;28;20021;-85
2023/08/25 00:41:08;;;;;;;7.60;4.60;;;;;;;21.01;71.88;98226.31;5003419;28;20025;-85
2023/08/25 00:43:34;;;;;;;13.98;4.78;;;;;;;21.18;71.51;98235.13;5006357;28;20050;-85
2023/08/25 00:46:01;;;;;;;10.98;5.30;;;;;;;21.18;71.84;98237.03;5022597;28;20030;-86
2023/08/25 00:48:27;;;;;;;9.20;4.35;;;;;;;21.10;71.86;98240.63;5024970;28;20044;-85
2023/08/25 00:50:54;;;;;;;8.10;4.68;;;;;;;21.13;71.99;98229.09;5008277;28;20097;-86
2023/08/25 00:53:21;;;;;;;6.80;4.72;;;;;;;20.96;71.76;98208.31;5007733;28;20490;-85
2023/08/25 00:55:47;;;;;;;6.78;4.70;;;;;;;21.10;71.77;98227.84;5008487;28;20093;-85
2023/08/25 00:58:14;;;;;;;8.32;4.47;;;;;;;20.89;72.15;98208.81;5020894;28;20033;-85
2023/08/25 01:00:42;;;;;;;10.50;5.18;;;;;;;20.65;72.62;98200.53;5031498;28;20033;-86
2023/08/25 01:03:08;;;;;;;6.25;4.53;;;;;;;20.33;75.36;98251.94;5020721;28;20418;-85
2023/08/25 01:05:39;;;;;;;9.30;5.20;;;;;;;20.00;76.46;98238.97;5021945;28;20035;-85
2023/08/25 01:08:05;;;;;;;9.23;5.10;;;;;;;20.43;74.03;98229.84;5021877;28;20025;-85
2023/08/25 01:10:49;;;;;;;8.45;4.70;;;;;;;20.48;73.20;98203.38;5037637;28;20171;-85
2023/08/25 01:13:36;;;;;;;6.72;5.10;;;;;;;20.96;72.54;98240.84;5021986;28;20033;-86
2023/08/25 01:16:05;;;;;;;7.68;5.13;;;;;;;20.85;72.74;98235.03;5039907;28;20029;-86
2023/08/25 01:18:33;;;;;;;6.60;4.78;;;;;;;20.65;72.69;98197.84;5022960;28;20034;-86
2023/08/25 01:20:58;;;;;;;9.13;5.78;;;;;;;20.72;72.58;98217.09;5025175;28;20021;-85
2023/08/25 01:24:08;;;;;;;8.07;5.03;;;;;;;20.66;73.54;98248.22;5025573;28;20057;-85
2023/08/25 01:26:34;;;;;;;8.80;4.90;;;;;;;20.82;72.94;98234.88;5037598;28;20032;-86
2023/08/25 01:28:59;;;;;;;42.65;6.45;;;;;;;20.78;72.59;98236.66;5026905;28;20093;-85
2023/08/25 01:31:24;;;;;;;7.72;5.03;;;;;;;20.47;72.83;98195.53;5024596;28;20035;-85
2023/08/25 01:33:53;;;;;;;10.98;5.28;;;;;;;20.96;72.83;98256.34;5025414;28;20049;-85
2023/08/25 01:36:33;;;;;;;7.15;4.82;;;;;;;20.87;72.71;98246.34;5023510;28;20033;-85
2023/08/25 01:39:06;;;;;;;7.03;4.50;;;;;;;20.70;73.21;98235.63;5020467;28;20026;-85
2023/08/25 01:41:41;;;;;;;11.02;4.53;;;;;;;20.42;73.54;98176.78;5021578;28;20033;-86
2023/08/25 01:44:07;;;;;;;7.43;5.50;;;;;;;20.74;73.45;98214.03;5022805;28;20041;-85
2023/08/25 01:46:35;;;;;;;8.05;4.97;;;;;;;20.48;74.20;98214.22;5016079;28;20270;-85
2023/08/25 01:49:02;;;;;;;6.03;5.43;;;;;;;20.60;73.98;98225.13;5036156;28;20037;-85
2023/08/25 01:51:28;;;;;;;7.25;4.85;;;;;;;20.58;73.79;98205.69;5025788;28;20509;-84
2023/08/25 01:53:55;;;;;;;10.55;5.05;;;;;;;20.72;73.52;98230.66;5024819;28;20167;-85
2023/08/25 01:56:22;;;;;;;5.13;4.57;;;;;;;20.40;73.60;98179.78;5025146;28;20044;-86
2023/08/25 01:58:48;;;;;;;11.05;5.95;;;;;;;20.42;74.39;98226.34;5025173;28;20068;-85
2023/08/25 02:01:13;;;;;;;9.05;5.03;;;;;;;20.22;74.20;98181.03;5024284;28;20028;-85
2023/08/25 02:03:39;;;;;;;9.07;5.35;;;;;;;20.51;74.17;98210.06;5007902;28;20026;-85
2023/08/25 02:06:04;;;;;;;8.70;5.40;;;;;;;20.10;74.42;98160.03;5022496;28;20042;-85
2023/08/25 02:08:30;;;;;;;6.63;5.13;;;;;;;20.24;74.57;98208.59;5039679;28;20109;-85
2023/08/25 02:10:55;;;;;;;7.60;5.22;;;;;;;19.74;74.45;98129.13;5022375;28;20072;-85
2023/08/25 02:13:20;;;;;;;9.48;5.63;;;;;;;20.56;74.20;98216.06;5021778;28;20062;-85
2023/08/25 02:15:47;;;;;;;9.25;5.28;;;;;;;20.65;73.88;98202.47;5023843;28;20410;-85
2023/08/25 02:18:12;;;;;;;6.97;5.00;;;;;;;20.57;74.03;98206.81;5020522;28;20371;-85
2023/08/25 02:20:41;;;;;;;8.00;5.47;;;;;;;20.44;74.25;98188.09;5022841;28;20057;-84
2023/08/25 02:23:07;;;;;;;5.70;5.07;;;;;;;20.59;74.20;98201.88;5037245;28;20088;-85
2023/08/25 02:25:33;;;;;;;6.32;4.75;;;;;;;20.61;74.23;98198.81;5028531;28;20473;-86
2023/08/25 02:27:58;;;;;;;5.85;5.10;;;;;;;20.44;74.11;98188.88;5012581;28;20029;-86
2023/08/25 02:30:24;;;;;;;7.35;5.18;;;;;;;19.91;74.84;98148.81;5011099;28;20037;-86
2023/08/25 02:32:49;;;;;;;9.18;5.25;;;;;;;20.24;74.28;98159.81;5028282;28;20033;-86
2023/08/25 02:35:15;;;;;;;5.03;4.57;;;;;;;19.80;75.57;98149.50;5013113;28;20050;-86
2023/08/25 02:38:08;;;;;;;7.70;5.60;;;;;;;19.90;75.83;98193.25;5030612;28;20033;-86
2023/08/25 02:40:34;;;;;;;10.02;5.95;;;;;;;20.13;75.67;98196.50;5029411;28;20100;-86
2023/08/25 02:43:02;;;;;;;12.23;6.38;;;;;;;19.59;77.39;98195.44;5027479;28;20017;-86
2023/08/25 02:45:27;;;;;;;9.60;5.25;;;;;;;19.38;76.85;98132.28;5027441;28;20032;-86
2023/08/25 02:47:54;;;;;;;8.23;5.40;;;;;;;19.83;75.39;98130.66;5006944;28;20049;-86
2023/08/25 02:50:20;;;;;;;11.10;5.90;;;;;;;20.33;74.66;98173.31;5028736;28;20029;-86
2023/08/25 02:52:46;;;;;;;9.02;5.57;;;;;;;20.39;74.43;98164.66;5025774;28;20040;-85
2023/08/25 02:55:16;;;;;;;8.05;5.82;;;;;;;19.91;74.92;98156.13;5026645;28;20026;-85
2023/08/25 02:57:42;;;;;;;8.98;4.68;;;;;;;19.71;75.60;98117.03;5009256;28;20034;-85
2023/08/25 03:00:10;;;;;;;6.47;5.20;;;;;;;19.57;75.60;98075.81;5024663;28;20701;-86
2023/08/25 03:02:35;;;;;;;7.13;5.82;;;;;;;19.99;74.43;98110.03;5036705;28;20090;-85
2023/08/25 03:05:07;;;;;;;6.72;5.40;;;;;;;20.35;73.96;98152.91;5022300;28;20061;-85
2023/08/25 03:07:33;;;;;;;8.00;5.60;;;;;;;20.34;74.21;98162.13;5025452;28;20121;-85
2023/08/25 03:09:58;;;;;;;8.27;6.85;;;;;;;20.15;73.97;98112.97;5023011;28;20034;-85
2023/08/25 03:12:24;;;;;;;7.20;6.00;;;;;;;20.23;74.49;98144.66;5022529;28;20025;-85
2023/08/25 03:14:49;;;;;;;10.23;5.32;;;;;;;20.22;74.49;98159.34;5026562;28;20029;-85
2023/08/25 03:17:14;;;;;;;10.85;6.35;;;;;;;20.21;74.46;98146.91;5026203;28;20065;-85
2023/08/25 03:19:41;;;;;;;17.48;6.18;;;;;;;20.16;75.42;98161.41;5024897;28;20041;-85
2023/08/25 03:22:07;;;;;;;6.50;5.75;;;;;;;19.91;74.81;98107.38;5022384;28;20046;-85
2023/08/25 03:24:33;;;;;;;9.70;5.93;;;;;;;20.22;74.96;98147.72;5037876;28;20076;-85
2023/08/25 03:26:58;;;;;;;7.13;5.22;;;;;;;20.01;75.16;98134.88;5024267;28;20038;-85
2023/08/25 03:29:24;;;;;;;7.75;5.80;;;;;;;20.02;75.21;98133.78;5026013;28;20029;-85
2023/08/25 03:31:49;;;;;;;7.80;5.95;;;;;;;20.09;75.08;98135.97;5025181;28;20030;-85
2023/08/25 03:34:15;;;;;;;10.88;6.50;;;;;;;19.63;75.28;98049.38;5023076;28;20441;-85
2023/08/25 03:36:40;;;;;;;10.80;6.88;;;;;;;20.06;75.45;98129.28;5010063;28;20077;-85
2023/08/25 03:39:05;;;;;;;9.85;6.45;;;;;;;19.78;75.48;98094.84;5025040;28;20060;-85
2023/08/25 03:41:31;;;;;;;8.23;5.70;;;;;;;20.08;75.22;98127.03;5011633;28;20033;-86
2023/08/25 03:43:56;;;;;;;10.07;6.15;;;;;;;20.10;75.13;98135.63;5024255;28;20022;-85
2023/08/25 03:46:22;;;;;;;7.82;6.28;;;;;;;20.05;75.42;98129.63;5007465;28;20174;-83
2023/08/25 03:48:47;;;;;;;9.15;6.65;;;;;;;19.95;75.65;98121.84;5026630;28;20022;-85
2023/08/25 03:51:13;;;;;;;9.23;6.00;;;;;;;19.66;75.61;98086.66;5005558;28;20680;-85
2023/08/25 03:53:38;;;;;;;12.95;6.85;;;;;;;19.96;75.42;98129.63;5040578;28;20033;-86
2023/08/25 03:56:04;;;;;;;9.10;6.22;;;;;;;19.68;75.94;98096.00;5010017;28;20129;-86
2023/08/25 03:58:29;;;;;;;10.00;6.57;;;;;;;20.01;75.70;98142.22;5025726;28;20037;-86
2023/08/25 04:00:56;;;;;;;11.63;7.15;;;;;;;19.68;76.01;98097.94;5005351;28;20037;-85
2023/08/25 04:03:21;;;;;;;9.00;6.82;;;;;;;19.95;75.87;98140.81;5024862;28;20044;-85
2023/08/25 04:05:49;;;;;;;10.75;6.63;;;;;;;19.60;75.96;98087.94;5024929;28;20026;-85
2023/08/25 04:08:14;;;;;;;11.82;8.10;;;;;;;19.77;75.69;98104.88;5025051;28;20092;-86
2023/08/25 04:10:41;;;;;;;10.00;7.38;;;;;;;19.94;75.67;98141.94;5024709;28;20025;-86
2023/08/25 04:13:07;;;;;;;8.50;7.10;;;;;;;19.60;75.91;98101.47;5024490;28;20478;-86
2023/08/25 04:15:32;;;;;;;9.07;7.00;;;;;;;19.96;75.71;98143.19;5019806;28;20041;-86
2023/08/25 04:17:58;;;;;;;7.32;6.55;;;;;;;19.62;75.45;98099.22;5026446;28;20033;-85
2023/08/25 04:20:23;;;;;;;9.32;6.35;;;;;;;19.80;75.58;98149.50;5021379;28;20029;-85
2023/08/25 04:22:49;;;;;;;11.05;7.78;;;;;;;19.40;75.78;98103.78;5019320;28;20032;-85
2023/08/25 04:25:14;;;;;;;8.50;6.57;;;;;;;19.56;76.02;98131.09;5000080;28;20027;-85
2023/08/25 04:27:39;;;;;;;8.75;6.97;;;;;;;19.46;75.80;98117.94;5020050;28;20030;-85
2023/08/25 04:30:05;;;;;;;8.85;6.45;;;;;;;19.77;75.64;98171.78;5006956;28;20040;-85
2023/08/25 04:32:31;;;;;;;12.38;7.50;;;;;;;19.32;76.25;98101.06;5019389;28;20046;-85
2023/08/25 04:34:56;;;;;;;7.35;6.65;;;;;;;19.36;77.16;98132.59;5010660;28;20053;-85
2023/08/25 04:37:22;;;;;;;8.73;7.50;;;;;;;19.41;76.54;98113.50;5025570;28;20034;-85
2023/08/25 04:39:47;;;;;;;10.93;7.00;;;;;;;19.47;76.25;98116.81;5025066;28;20048;-85
2023/08/25 04:42:13;;;;;;;12.32;7.07;;;;;;;19.35;76.50;98101.22;5005746;28;20084;-85
2023/08/25 04:44:38;;;;;;;9.70;7.35;;;;;;;19.37;76.98;98117.16;5019414;28;20033;-85
2023/08/25 04:47:04;;;;;;;9.82;7.82;;;;;;;19.42;76.85;98123.19;5006340;28;20022;-83
2023/08/25 04:49:29;;;;;;;9.32;7.57;;;;;;;19.36;77.50;98138.00;5014594;28;20030;-84
2023/08/25 04:51:54;;;;;;;9.05;8.13;;;;;;;19.30;77.54;98141.19;5032929;28;20279;-84
2023/08/25 04:54:20;;;;;;;11.52;8.23;;;;;;;18.74;79.41;98098.94;5010364;28;20042;-85
2023/08/25 04:56:46;;;;;;;8.90;8.00;;;;;;;18.96;79.17;98116.91;5004741;28;20076;-84
2023/08/25 04:59:11;;;;;;;8.23;7.22;;;;;;;19.29;77.06;98091.66;5018257;28;20029;-83
2023/08/25 05:01:37;;;;;;;9.30;7.68;;;;;;;19.80;76.30;98144.88;5002020;28;20494;-83
2023/08/25 05:04:02;;;;;;;9.50;6.50;;;;;;;19.80;76.53;98141.38;5017304;28;20021;-83
2023/08/25 05:06:28;;;;;;;8.55;7.13;;;;;;;19.68;76.79;98133.16;5015423;28;20069;-83
2023/08/25 05:08:54;;;;;;;19.88;8.35;;;;;;;19.37;78.04;98141.53;5014996;28;20080;-83
2023/08/25 05:11:20;;;;;;;7.75;6.88;;;;;;;19.29;78.71;98126.03;5003104;28;20058;-83
2023/08/25 05:13:46;;;;;;;8.82;7.53;;;;;;;19.46;78.27;98138.78;5018588;28;20113;-83
2023/08/25 05:16:12;;;;;;;9.15;8.23;;;;;;;19.44;78.17;98150.72;5035300;28;20061;-83
2023/08/25 05:18:37;;;;;;;11.35;8.07;;;;;;;19.41;78.90;98145.16;5012827;28;20091;-83
2023/08/25 05:21:03;;;;;;;11.02;8.43;;;;;;;19.49;78.38;98135.41;5030139;28;20042;-83
2023/08/25 05:23:29;;;;;;;10.32;8.52;;;;;;;19.48;78.30;98125.72;5019803;28;20436;-83
2023/08/25 05:25:55;;;;;;;11.52;8.25;;;;;;;19.56;78.56;98133.81;5039874;28;20509;-83
2023/08/25 05:28:21;;;;;;;10.40;8.65;;;;;;;19.54;78.73;98138.75;5020091;28;20037;-83
2023/08/25 05:30:48;;;;;;;9.23;7.90;;;;;;;19.56;78.55;98144.63;5037044;28;20041;-83
2023/08/25 05:33:14;;;;;;;9.18;8.27;;;;;;;19.06;80.99;98113.84;5018743;28;21860;-82
2023/08/25 05:35:40;;;;;;;16.25;8.70;;;;;;;19.44;79.40;98134.47;5017900;28;20029;-83
2023/08/25 05:38:05;;;;;;;12.05;8.75;;;;;;;19.58;78.84;98133.47;5014527;28;20401;-82
2023/08/25 05:40:30;;;;;;;15.82;9.77;;;;;;;19.65;79.24;98160.84;5004551;28;20037;-83
2023/08/25 05:42:56;;;;;;;10.50;8.27;;;;;;;19.64;78.89;98151.94;4984092;28;20026;-82
2023/08/25 05:45:21;;;;;;;8.57;7.68;;;;;;;19.55;79.22;98158.50;5019887;28;20066;-83
2023/08/25 05:47:46;;;;;;;10.00;8.63;;;;;;;19.55;79.84;98159.28;5019717;28;20022;-83
2023/08/25 05:50:12;;;;;;;12.65;9.63;;;;;;;19.43;81.39;98164.59;5020270;28;20482;-82
2023/08/25 05:52:39;;;;;;;10.68;8.43;;;;;;;19.46;80.78;98157.72;5029399;28;20389;-82
2023/08/25 05:55:08;;;;;;;11.38;8.50;;;;;;;19.60;80.05;98158.31;5019109;28;20470;-83
2023/08/25 05:57:33;;;;;;;10.43;8.65;;;;;;;19.68;79.89;98163.69;5002793;28;20080;-82
2023/08/25 05:59:59;;;;;;;12.93;9.25;;;;;;;19.98;78.48;98167.25;5019182;28;20030;-82
2023/08/25 06:02:24;;;;;;;8.70;7.82;;;;;;;19.72;79.53;98148.41;5017575;28;20026;-82
2023/08/25 06:04:49;;;;;;;9.43;8.52;;;;;;;19.84;79.24;98175.59;5016192;28;20026;-82
2023/08/25 06:07:15;;;;;;;13.93;8.98;;;;;;;19.90;79.23;98170.78;5016618;28;20034;-82
2023/08/25 06:09:41;;;;;;;14.00;8.63;;;;;;;19.49;81.57;98146.25;5012966;28;20449;-83
2023/08/25 06:12:07;;;;;;;10.00;8.50;;;;;;;19.52;80.59;98140.19;5036344;28;20053;-83
2023/08/25 06:14:33;;;;;;;17.25;12.73;;;;;;;19.49;83.45;98184.16;5018201;28;20033;-82
2023/08/25 06:17:01;;;;;;;15.00;11.35;;;;;;;19.21;84.56;98162.84;5033348;28;20405;-82
2023/08/25 06:19:27;;;;;;;10.98;8.45;;;;;;;19.47;82.03;98172.84;5016593;28;20641;-82
2023/08/25 06:21:52;;;;;;;12.68;9.02;;;;;;;19.68;80.34;98161.00;5019330;28;20033;-82
2023/08/25 06:24:18;;;;;;;13.95;10.70;;;;;;;19.67;82.37;98164.03;5015666;28;20042;-82
2023/08/25 06:26:43;;;;;;;10.25;9.13;;;;;;;19.78;81.00;98174.19;5017537;28;20026;-82
2023/08/25 06:29:09;;;;;;;9.30;8.25;;;;;;;20.02;79.16;98181.75;5010241;28;20044;-83
2023/08/25 06:31:34;;;;;;;12.02;8.20;;;;;;;20.19;78.45;98177.03;5035215;28;20038;-82
2023/08/25 06:34:02;;;;;;;11.13;8.23;;;;;;;20.17;78.40;98167.63;5010554;28;20072;-83
2023/08/25 06:36:29;;;;;;;10.13;9.13;;;;;;;20.03;80.42;98156.22;5007001;28;20038;-83
2023/08/25 06:38:56;;;;;;;11.02;9.05;;;;;;;20.11;79.22;98163.53;4991596;28;20152;-82
2023/08/25 06:41:22;;;;;;;13.85;10.10;;;;;;;19.96;81.77;98151.31;5000636;28;20045;-83
2023/08/25 06:43:47;;;;;;;11.30;7.97;;;;;;;20.33;78.29;98154.34;5007382;28;20022;-83
2023/08/25 06:46:13;;;;;;;18.10;11.50;;;;;;;19.83;83.93;98146.91;5012078;28;20034;-83
2023/08/25 06:48:38;;;;;;;12.15;9.98;;;;;;;19.89;84.25;98152.97;5015492;28;20045;-82
2023/08/25 06:51:03;;;;;;;16.33;10.90;;;;;;;19.69;86.24;98150.97;5017065;28;20042;-83
2023/08/25 06:53:29;;;;;;;11.82;10.57;;;;;;;19.87;85.23;98158.72;4994235;28;21392;-82
2023/08/25 06:55:54;;;;;;;11.27;8.07;;;;;;;20.27;79.54;98151.03;5012733;28;20402;-82
2023/08/25 06:58:19;;;;;;;13.52;9.05;;;;;;;20.42;78.33;98147.72;5009177;28;20087;-83
2023/08/25 07:00:45;;;;;;;10.85;9.07;;;;;;;20.41;79.83;98158.91;4995342;28;20025;-82
2023/08/25 07:03:10;;;;;;;11.00;8.60;;;;;;;20.39;80.12;98150.31;5014340;28;20034;-82
2023/08/25 07:05:38;;;;;;;9.73;7.82;;;;;;;20.31;80.25;98124.88;5012642;28;20036;-83
2023/08/25 07:08:05;;;;;;;10.63;9.55;;;;;;;20.56;82.09;98144.78;5010438;28;20053;-83
2023/08/25 07:10:30;;;;;;;11.57;8.75;;;;;;;20.22;81.77;98121.41;5012331;28;20044;-83
2023/08/25 07:12:55;;;;;;;15.63;9.07;;;;;;;20.65;79.83;98126.53;4996776;28;20030;-82
2023/08/25 07:15:21;;;;;;;11.38;9.00;;;;;;;20.48;81.18;98107.69;5025315;28;20037;-83
2023/08/25 07:17:47;;;;;;;10.48;8.75;;;;;;;20.68;82.30;98145.66;5014225;28;20101;-83
2023/08/25 07:20:13;;;;;;;11.10;8.15;;;;;;;20.98;78.61;98143.63;4996198;28;20044;-83
2023/08/25 07:22:39;;;;;;;9.15;7.38;;;;;;;21.02;79.46;98160.84;5012783;28;20116;-83
2023/08/25 07:25:05;;;;;;;17.77;9.80;;;;;;;20.86;80.67;98155.22;5013815;28;20034;-83
2023/08/25 07:27:30;;;;;;;9.75;8.13;;;;;;;20.93;79.62;98152.78;5011905;28;20056;-83
2023/08/25 07:29:56;;;;;;;12.52;8.63;;;;;;;21.12;80.55;98178.66;5034645;28;20038;-83
2023/08/25 07:32:21;;;;;;;9.68;7.47;;;;;;;21.22;79.10;98164.69;5020418;28;20435;-83
2023/08/25 07:34:47;;;;;;;13.57;8.30;;;;;;;21.23;79.27;98169.00;5019097;28;20058;-83
2023/08/25 07:37:12;;;;;;;10.95;8.55;;;;;;;21.32;80.08;98164.25;5014067;28;20030;-83
2023/08/25 07:39:42;;;;;;;13.40;8.20;;;;;;;21.41;78.79;98170.38;5019545;28;20092;-83
2023/08/25 07:42:08;;;;;;;10.80;7.57;;;;;;;21.50;78.26;98166.47;5015020;28;20037;-83
2023/08/25 07:44:34;;;;;;;12.52;7.93;;;;;;;21.62;78.19;98174.63;5031434;28;20109;-83
2023/08/25 07:46:59;;;;;;;9.20;7.43;;;;;;;21.54;77.79;98178.22;4995685;28;20072;-83
2023/08/25 07:49:25;;;;;;;10.75;7.55;;;;;;;21.57;77.92;98193.88;5015977;28;20040;-83
2023/08/25 07:51:50;;;;;;;7.70;6.35;;;;;;;21.67;77.36;98198.06;5013167;28;20041;-83
2023/08/25 07:54:15;;;;;;;7.78;6.88;;;;;;;21.33;76.90;98133.25;5010855;28;20026;-83
2023/08/25 07:56:41;;;;;;;14.02;8.07;;;;;;;21.63;77.04;98178.13;4999722;28;20042;-83
2023/08/25 07:59:07;;;;;;;9.15;7.25;;;;;;;21.64;77.65;98190.59;5034133;28;20034;-83
2023/08/25 08:01:32;;;;;;;7.38;6.63;;;;;;;21.69;77.17;98178.72;5019026;28;20034;-83
2023/08/25 08:04:00;;;;;;;10.90;7.63;;;;;;;21.75;76.44;98183.59;5009745;28;20478;-83
2023/08/25 08:06:26;;;;;;;10.18;6.13;;;;;;;21.77;76.60;98180.53;5013778;28;20497;-83
2023/08/25 08:08:58;;;;;;;9.55;7.82;;;;;;;21.83;77.01;98184.66;5051098;28;20408;-81
2023/08/25 08:11:23;;;;;;;8.35;6.57;;;;;;;21.86;76.78;98189.44;5029206;28;20524;-80
2023/08/25 08:13:49;;;;;;;10.20;6.85;;;;;;;21.92;76.47;98194.31;5042277;28;20029;-80
2023/08/25 08:16:14;;;;;;;12.10;7.32;;;;;;;21.94;77.22;98199.38;5043905;28;20075;-79
2023/08/25 08:18:39;;;;;;;7.85;7.00;;;;;;;22.05;75.97;98203.25;5023865;28;20035;-80
2023/08/25 08:21:05;;;;;;;9.55;6.68;;;;;;;22.04;76.14;98202.44;5049495;28;20424;-79
2023/08/25 08:23:30;;;;;;;8.35;6.40;;;;;;;22.07;75.62;98190.91;5055470;28;20394;-80
2023/08/25 08:25:55;;;;;;;10.30;7.10;;;;;;;22.10;76.03;98197.59;5029340;28;20422;-81
2023/08/25 08:28:21;;;;;;;9.10;6.40;;;;;;;22.15;76.17;98200.06;5051550;28;20031;-80
2023/08/25 08:30:46;;;;;;;7.80;7.10;;;;;;;22.20;75.13;98210.72;5047776;28;20045;-80
2023/08/25 08:33:11;;;;;;;8.57;6.90;;;;;;;22.11;75.79;98208.13;5040496;28;20037;-80
2023/08/25 08:35:37;;;;;;;9.15;7.25;;;;;;;22.06;76.06;98211.06;5045655;28;20029;-80
2023/08/25 08:38:03;;;;;;;11.73;7.47;;;;;;;22.10;76.14;98205.75;5045626;28;20093;-80
2023/08/25 08:40:31;;;;;;;8.65;7.57;;;;;;;22.06;75.97;98197.47;5015294;28;20148;-80
2023/08/25 08:42:59;;;;;;;12.00;7.82;;;;;;;22.02;76.57;98215.59;5066340;28;20016;-80
2023/08/25 08:45:27;;;;;;;10.30;8.00;;;;;;;21.96;76.10;98214.22;5060449;28;20037;-80
2023/08/25 08:47:53;;;;;;;9.50;7.35;;;;;;;21.88;76.66;98208.91;5066398;28;20020;-81
2023/08/25 08:50:39;;;;;;;9.45;8.30;;;;;;;21.90;76.62;98217.50;5057703;28;20093;-80
2023/08/25 08:53:24;;;;;;;;;;;;;;;21.99;76.18;98227.16;5047752;28;20045;-81
2023/08/25 08:55:57;;;;;;;14.60;8.70;;;;;;;21.89;76.95;98221.34;5044571;28;20008;-81
2023/08/25 08:58:23;;;;;;;9.90;7.68;;;;;;;21.85;76.88;98223.94;5060759;28;20029;-81
2023/08/25 09:00:48;;;;;;;9.52;8.05;;;;;;;21.91;77.81;98219.88;5054661;28;20505;-80
2023/08/25 09:03:19;;;;;;;9.90;7.25;;;;;;;21.98;76.30;98213.88;5052575;28;20037;-80
2023/08/25 09:05:47;;;;;;;9.27;8.38;;;;;;;21.93;77.64;98214.91;5057241;28;20021;-80
2023/08/25 09:08:14;;;;;;;10.00;7.68;;;;;;;21.95;76.40;98220.78;5053480;28;20114;-81
2023/08/25 09:10:39;;;;;;;9.20;8.23;;;;;;;21.89;77.87;98218.63;5056234;28;20110;-82
2023/08/25 09:13:05;;;;;;;10.15;8.15;;;;;;;22.01;76.31;98214.03;5052178;28;20049;-80
2023/08/25 09:15:31;;;;;;;8.82;7.93;;;;;;;22.03;76.31;98230.78;5046915;28;20040;-81
2023/08/25 09:18:05;;;;;;;11.73;8.68;;;;;;;22.08;76.04;98235.22;5037152;28;20056;-80
2023/08/25 09:20:33;;;;;;;11.20;7.95;;;;;;;22.05;75.99;98233.94;5045299;28;20032;-81
2023/08/25 09:23:00;;;;;;;10.27;8.55;;;;;;;22.02;77.25;98217.50;5044157;28;20033;-80
2023/08/25 09:25:26;;;;;;;9.80;7.13;;;;;;;22.00;76.23;98204.28;5027690;28;20026;-80
2023/08/25 09:27:59;;;;;;;7.57;6.78;;;;;;;22.12;76.05;98187.19;5028545;28;20025;-81
2023/08/25 09:30:37;;;;;;;8.60;6.43;;;;;;;22.26;75.55;98184.91;5033129;28;20032;-81
2023/08/25 09:33:04;;;;;;;10.23;8.38;;;;;;;22.23;78.70;98189.13;5034895;28;20026;-80
2023/08/25 09:35:31;;;;;;;8.85;7.93;;;;;;;22.30;75.88;98191.28;5040442;28;20120;-81
2023/08/25 09:37:56;;;;;;;8.90;8.10;;;;;;;22.22;77.56;98182.09;5046397;28;20774;-80
2023/08/25 09:40:21;;;;;;;10.40;7.68;;;;;;;22.25;75.73;98172.47;5034192;28;20068;-82
2023/08/25 09:42:47;;;;;;;8.25;7.47;;;;;;;22.29;76.05;98179.59;5048561;28;20124;-80
2023/08/25 09:45:13;;;;;;;8.18;7.20;;;;;;;22.19;76.00;98177.31;5027066;28;20033;-81
2023/08/25 09:47:40;;;;;;;9.48;8.40;;;;;;;22.24;75.69;98187.97;5041674;28;20048;-81
2023/08/25 09:50:06;;;;;;;9.00;7.72;;;;;;;22.24;75.84;98184.44;5031925;28;20041;-80
2023/08/25 09:52:37;;;;;;;11.07;8.55;;;;;;;22.23;76.61;98200.00;5040898;28;20385;-80
2023/08/25 09:55:03;;;;;;;10.27;8.35;;;;;;;22.26;75.75;98209.38;5046880;28;20048;-80
2023/08/25 09:57:30;;;;;;;12.07;8.73;;;;;;;22.21;75.79;98215.06;5035610;28;20021;-80
2023/08/25 09:59:56;;;;;;;10.73;8.18;;;;;;;22.20;76.16;98216.97;5028203;28;20148;-80
2023/08/25 10:02:22;;;;;;;8.80;7.93;;;;;;;22.21;75.96;98229.41;5038249;28;20115;-80
2023/08/25 10:04:47;;;;;;;8.82;7.95;;;;;;;22.14;77.01;98221.06;5025710;28;20072;-81
2023/08/25 10:07:13;;;;;;;8.05;7.25;;;;;;;22.09;76.37;98234.06;5043345;28;20029;-82
2023/08/25 10:09:38;;;;;;;9.48;8.40;;;;;;;21.99;77.03;98240.75;5036206;28;20047;-81
2023/08/25 10:12:07;;;;;;;12.65;9.73;;;;;;;21.86;78.21;98241.06;5043756;28;20171;-79
2023/08/25 10:14:35;;;;;;;11.73;10.55;;;;;;;21.71;79.18;98237.00;5031955;28;20030;-81
2023/08/25 10:17:02;;;;;;;12.98;10.35;;;;;;;21.74;79.90;98241.78;5044293;28;20037;-80
2023/08/25 10:19:28;;;;;;;16.45;11.15;;;;;;;21.68;80.30;98254.00;5041446;28;20026;-82
2023/08/25 10:21:58;;;;;;;14.27;11.40;;;;;;;21.68;80.87;98254.00;5030123;28;20087;-81
2023/08/25 10:24:28;;;;;;;18.42;12.65;;;;;;;21.46;82.04;98254.38;5025562;28;20362;-83
2023/08/25 10:26:55;;;;;;;16.50;11.48;;;;;;;21.43;80.87;98244.16;5034147;28;20035;-82
2023/08/25 10:29:22;;;;;;;14.52;13.00;;;;;;;21.49;82.20;98246.34;5040484;28;20029;-82
2023/08/25 10:31:49;;;;;;;13.80;11.07;;;;;;;21.57;80.19;98242.75;5021576;28;20136;-84
2023/08/25 10:34:33;;;;;;;13.15;11.32;;;;;;;21.70;79.91;98251.72;5032200;28;20060;-82
2023/08/25 10:37:12;;;;;;;14.98;11.00;;;;;;;21.70;80.00;98243.59;5030293;28;20021;-80
2023/08/25 10:40:08;;;;;;;14.02;10.85;;;;;;;21.79;79.29;98244.28;5027489;28;20028;-80
2023/08/25 10:42:35;;;;;;;13.07;10.70;;;;;;;21.82;79.35;98248.25;5045013;28;20044;-81
2023/08/25 10:45:04;;;;;;;12.82;11.52;;;;;;;21.77;79.53;98245.75;5048829;28;20603;-80
2023/08/25 10:47:29;;;;;;;12.65;10.65;;;;;;;21.88;80.40;98252.38;5044155;28;20021;-81
2023/08/25 10:49:59;;;;;;;12.43;10.25;;;;;;;21.83;79.80;98247.16;5030410;28;20033;-80
2023/08/25 10:52:24;;;;;;;16.23;12.70;;;;;;;21.79;80.19;98238.06;5026971;28;20530;-80
2023/08/25 10:54:52;;;;;;;16.63;14.50;;;;;;;21.75;82.38;98243.38;5035616;28;20037;-82
2023/08/25 10:57:27;;;;;;;15.60;12.63;;;;;;;21.83;79.77;98250.66;5041323;28;20021;-81
2023/08/25 10:59:56;;;;;;;14.48;10.82;;;;;;;21.85;80.14;98250.31;5054790;28;20126;-80
2023/08/25 11:02:37;;;;;;;13.80;11.90;;;;;;;21.84;79.87;98254.97;5039005;28;20081;-80
2023/08/25 11:05:34;;;;;;;14.18;11.48;;;;;;;21.71;83.46;98250.59;5042448;28;20034;-81
2023/08/25 11:08:24;;;;;;;17.05;12.23;;;;;;;21.74;81.63;98257.28;5036442;28;20057;-82
2023/08/25 11:11:12;;;;;;;16.50;13.20;;;;;;;21.77;81.67;98256.63;5035389;28;20040;-81
2023/08/25 11:13:39;;;;;;;17.60;11.90;;;;;;;21.72;81.99;98275.84;5039021;28;20033;-80
2023/08/25 11:16:06;;;;;;;17.98;14.77;;;;;;;21.47;84.41;98270.31;5017748;28;20022;-81
2023/08/25 11:18:32;;;;;;;19.33;13.35;;;;;;;21.58;83.93;98267.97;5004856;28;20033;-80
2023/08/25 11:21:00;;;;;;;17.63;14.20;;;;;;;21.49;84.61;98267.28;5043534;28;20375;-83
2023/08/25 11:23:37;;;;;;;18.25;13.43;;;;;;;21.49;84.91;98261.84;5035128;28;20079;-82
2023/08/25 11:26:03;;;;;;;18.90;14.02;;;;;;;21.59;84.47;98259.50;5037517;28;20035;-80
2023/08/25 11:28:28;;;;;;;13.27;11.75;;;;;;;21.52;83.69;98261.97;5027099;28;20034;-80
2023/08/25 11:30:54;;;;;;;15.23;12.10;;;;;;;21.58;83.03;98266.06;5033829;28;20596;-79